sensor_id;sensor_type;location;lat;lon;timestamp;P1;durP1;ratioP1;P2;durP2;ratioP2
37201;SDS011;37799;52.390;6.136;2022-12-18T00:00:41;11.05;;;4.75;;
37201;SDS011;37799;52.390;6.136;2022-12-18T00:03:07;23.67;;;5.63;;
37201;SDS011;37799;52.390;6.136;2022-12-18T00:05:33;21.02;;;4.88;;
37201;SDS011;37799;52.390;6.136;2022-12-18T00:07:58;22.55;;;7.07;;
37201;SDS011;37799;52.390;6.136;2022-12-18T00:10:24;27.27;;;6.22;;
37201;SDS011;37799;52.390;6.136;2022-12-18T00:12:49;22.17;;;5.88;;
37201;SDS011;37799;52.390;6.136;2022-12-18T00:15:14;22.98;;;5.28;;
37201;SDS011;37799;52.390;6.136;2022-12-18T00:17:40;17.10;;;4.05;;
37201;SDS011;37799;52.390;6.136;2022-12-18T00:20:05;22.25;;;5.18;;
37201;SDS011;37799;52.390;6.136;2022-12-18T00:22:31;13.13;;;4.03;;
37201;SDS011;37799;52.390;6.136;2022-12-18T00:24:56;18.25;;;4.95;;
37201;SDS011;37799;52.390;6.136;2022-12-18T00:27:22;24.88;;;5.40;;
37201;SDS011;37799;52.390;6.136;2022-12-18T00:29:47;22.92;;;6.00;;
37201;SDS011;37799;52.390;6.136;2022-12-18T00:32:13;23.33;;;5.35;;
37201;SDS011;37799;52.390;6.136;2022-12-18T00:34:38;17.38;;;5.38;;
37201;SDS011;37799;52.390;6.136;2022-12-18T00:37:04;23.63;;;5.82;;
37201;SDS011;37799;52.390;6.136;2022-12-18T00:39:29;32.85;;;6.75;;
37201;SDS011;37799;52.390;6.136;2022-12-18T00:41:54;17.52;;;4.57;;
37201;SDS011;37799;52.390;6.136;2022-12-18T00:44:38;21.30;;;4.45;;
37201;SDS011;37799;52.390;6.136;2022-12-18T00:47:03;22.02;;;4.47;;
37201;SDS011;37799;52.390;6.136;2022-12-18T00:49:29;23.90;;;5.80;;
37201;SDS011;37799;52.390;6.136;2022-12-18T00:51:54;21.73;;;5.00;;
37201;SDS011;37799;52.390;6.136;2022-12-18T00:54:19;28.33;;;6.53;;
37201;SDS011;37799;52.390;6.136;2022-12-18T00:56:45;15.15;;;4.47;;
37201;SDS011;37799;52.390;6.136;2022-12-18T00:59:10;20.65;;;5.25;;
37201;SDS011;37799;52.390;6.136;2022-12-18T01:01:35;21.08;;;4.28;;
37201;SDS011;37799;52.390;6.136;2022-12-18T01:04:01;25.23;;;5.80;;
37201;SDS011;37799;52.390;6.136;2022-12-18T01:06:27;27.92;;;6.43;;
37201;SDS011;37799;52.390;6.136;2022-12-18T01:08:53;21.73;;;5.25;;
37201;SDS011;37799;52.390;6.136;2022-12-18T01:11:19;19.40;;;5.57;;
37201;SDS011;37799;52.390;6.136;2022-12-18T01:13:45;22.63;;;6.35;;
37201;SDS011;37799;52.390;6.136;2022-12-18T01:16:11;13.55;;;3.60;;
37201;SDS011;37799;52.390;6.136;2022-12-18T01:18:38;23.67;;;4.47;;
37201;SDS011;37799;52.390;6.136;2022-12-18T01:21:10;17.77;;;5.75;;
37201;SDS011;37799;52.390;6.136;2022-12-18T01:23:38;21.48;;;5.15;;
37201;SDS011;37799;52.390;6.136;2022-12-18T01:26:04;10.15;;;2.72;;
37201;SDS011;37799;52.390;6.136;2022-12-18T01:28:31;16.30;;;5.15;;
37201;SDS011;37799;52.390;6.136;2022-12-18T01:30:56;22.80;;;6.60;;
37201;SDS011;37799;52.390;6.136;2022-12-18T01:33:21;17.60;;;5.70;;
37201;SDS011;37799;52.390;6.136;2022-12-18T01:35:47;15.75;;;4.05;;
37201;SDS011;37799;52.390;6.136;2022-12-18T01:38:12;16.35;;;6.07;;
37201;SDS011;37799;52.390;6.136;2022-12-18T01:40:37;17.48;;;4.60;;
37201;SDS011;37799;52.390;6.136;2022-12-18T01:43:03;17.25;;;5.50;;
37201;SDS011;37799;52.390;6.136;2022-12-18T01:45:29;11.57;;;3.38;;
37201;SDS011;37799;52.390;6.136;2022-12-18T01:47:58;15.35;;;4.32;;
37201;SDS011;37799;52.390;6.136;2022-12-18T01:50:28;15.55;;;3.92;;
37201;SDS011;37799;52.390;6.136;2022-12-18T01:52:58;19.40;;;4.45;;
37201;SDS011;37799;52.390;6.136;2022-12-18T01:55:29;14.63;;;3.53;;
37201;SDS011;37799;52.390;6.136;2022-12-18T01:58:00;17.20;;;4.35;;
37201;SDS011;37799;52.390;6.136;2022-12-18T02:00:25;16.95;;;4.47;;
37201;SDS011;37799;52.390;6.136;2022-12-18T02:02:52;18.77;;;5.10;;
37201;SDS011;37799;52.390;6.136;2022-12-18T02:05:27;16.83;;;4.97;;
37201;SDS011;37799;52.390;6.136;2022-12-18T02:10:46;11.45;;;3.50;;
37201;SDS011;37799;52.390;6.136;2022-12-18T02:13:24;13.45;;;3.67;;
37201;SDS011;37799;52.390;6.136;2022-12-18T02:18:32;20.50;;;4.85;;
37201;SDS011;37799;52.390;6.136;2022-12-18T02:21:08;27.85;;;4.57;;
37201;SDS011;37799;52.390;6.136;2022-12-18T02:23:51;14.88;;;3.72;;
37201;SDS011;37799;52.390;6.136;2022-12-18T02:29:07;25.88;;;5.25;;
37201;SDS011;37799;52.390;6.136;2022-12-18T02:31:39;13.90;;;4.30;;
37201;SDS011;37799;52.390;6.136;2022-12-18T02:34:08;20.15;;;4.82;;
37201;SDS011;37799;52.390;6.136;2022-12-18T02:36:35;15.10;;;4.35;;
37201;SDS011;37799;52.390;6.136;2022-12-18T02:39:03;18.35;;;4.45;;
37201;SDS011;37799;52.390;6.136;2022-12-18T02:41:32;19.92;;;4.90;;
37201;SDS011;37799;52.390;6.136;2022-12-18T02:43:59;17.63;;;4.70;;
37201;SDS011;37799;52.390;6.136;2022-12-18T02:46:33;20.92;;;4.90;;
37201;SDS011;37799;52.390;6.136;2022-12-18T02:49:06;16.23;;;4.45;;
37201;SDS011;37799;52.390;6.136;2022-12-18T02:54:13;13.75;;;3.42;;
37201;SDS011;37799;52.390;6.136;2022-12-18T02:56:59;14.60;;;4.60;;
37201;SDS011;37799;52.390;6.136;2022-12-18T02:59:40;9.15;;;4.00;;
37201;SDS011;37799;52.390;6.136;2022-12-18T03:02:26;17.98;;;5.05;;
37201;SDS011;37799;52.390;6.136;2022-12-18T03:05:01;15.63;;;4.40;;
37201;SDS011;37799;52.390;6.136;2022-12-18T03:10:34;12.63;;;3.05;;
37201;SDS011;37799;52.390;6.136;2022-12-18T03:13:04;14.25;;;4.05;;
37201;SDS011;37799;52.390;6.136;2022-12-18T03:15:44;15.85;;;3.78;;
37201;SDS011;37799;52.390;6.136;2022-12-18T03:18:30;12.27;;;3.78;;
37201;SDS011;37799;52.390;6.136;2022-12-18T03:21:02;10.32;;;4.43;;
37201;SDS011;37799;52.390;6.136;2022-12-18T03:23:32;17.67;;;4.63;;
37201;SDS011;37799;52.390;6.136;2022-12-18T03:26:02;17.60;;;3.45;;
37201;SDS011;37799;52.390;6.136;2022-12-18T03:28:31;11.27;;;3.70;;
37201;SDS011;37799;52.390;6.136;2022-12-18T03:31:03;13.90;;;3.88;;
37201;SDS011;37799;52.390;6.136;2022-12-18T03:33:40;29.10;;;4.70;;
37201;SDS011;37799;52.390;6.136;2022-12-18T03:36:17;15.77;;;4.45;;
37201;SDS011;37799;52.390;6.136;2022-12-18T03:38:43;21.70;;;4.95;;
37201;SDS011;37799;52.390;6.136;2022-12-18T03:43:53;22.95;;;4.28;;
37201;SDS011;37799;52.390;6.136;2022-12-18T03:49:11;13.45;;;4.65;;
37201;SDS011;37799;52.390;6.136;2022-12-18T03:51:47;13.50;;;3.65;;
37201;SDS011;37799;52.390;6.136;2022-12-18T03:54:17;23.02;;;4.65;;
37201;SDS011;37799;52.390;6.136;2022-12-18T03:56:45;16.30;;;5.57;;
37201;SDS011;37799;52.390;6.136;2022-12-18T03:59:15;28.80;;;3.50;;
37201;SDS011;37799;52.390;6.136;2022-12-18T04:01:43;14.90;;;4.20;;
37201;SDS011;37799;52.390;6.136;2022-12-18T04:04:12;19.63;;;5.18;;
37201;SDS011;37799;52.390;6.136;2022-12-18T04:06:39;9.30;;;3.50;;
37201;SDS011;37799;52.390;6.136;2022-12-18T04:09:07;20.88;;;3.42;;
37201;SDS011;37799;52.390;6.136;2022-12-18T04:11:33;11.23;;;3.17;;
37201;SDS011;37799;52.390;6.136;2022-12-18T04:13:58;26.83;;;5.32;;
37201;SDS011;37799;52.390;6.136;2022-12-18T04:16:24;13.30;;;2.78;;
37201;SDS011;37799;52.390;6.136;2022-12-18T04:18:50;11.02;;;4.07;;
37201;SDS011;37799;52.390;6.136;2022-12-18T04:21:15;17.63;;;4.57;;
37201;SDS011;37799;52.390;6.136;2022-12-18T04:23:41;16.65;;;3.90;;
37201;SDS011;37799;52.390;6.136;2022-12-18T04:26:06;23.50;;;4.53;;
37201;SDS011;37799;52.390;6.136;2022-12-18T04:28:31;18.83;;;3.65;;
37201;SDS011;37799;52.390;6.136;2022-12-18T04:30:57;17.50;;;4.20;;
37201;SDS011;37799;52.390;6.136;2022-12-18T04:33:22;12.32;;;2.80;;
37201;SDS011;37799;52.390;6.136;2022-12-18T04:35:47;16.02;;;3.45;;
37201;SDS011;37799;52.390;6.136;2022-12-18T04:38:13;8.65;;;3.25;;
37201;SDS011;37799;52.390;6.136;2022-12-18T04:40:38;8.35;;;2.75;;
37201;SDS011;37799;52.390;6.136;2022-12-18T04:43:04;15.27;;;4.00;;
37201;SDS011;37799;52.390;6.136;2022-12-18T04:45:30;13.80;;;4.07;;
37201;SDS011;37799;52.390;6.136;2022-12-18T04:47:57;13.93;;;4.93;;
37201;SDS011;37799;52.390;6.136;2022-12-18T04:50:22;10.88;;;4.43;;
37201;SDS011;37799;52.390;6.136;2022-12-18T04:52:48;20.15;;;4.20;;
37201;SDS011;37799;52.390;6.136;2022-12-18T04:55:13;7.00;;;2.88;;
37201;SDS011;37799;52.390;6.136;2022-12-18T04:57:38;10.38;;;4.25;;
37201;SDS011;37799;52.390;6.136;2022-12-18T05:00:04;11.43;;;3.53;;
37201;SDS011;37799;52.390;6.136;2022-12-18T05:02:31;15.15;;;3.78;;
37201;SDS011;37799;52.390;6.136;2022-12-18T05:04:56;10.35;;;2.75;;
37201;SDS011;37799;52.390;6.136;2022-12-18T05:07:21;11.80;;;3.28;;
37201;SDS011;37799;52.390;6.136;2022-12-18T05:09:47;11.40;;;3.45;;
37201;SDS011;37799;52.390;6.136;2022-12-18T05:12:12;10.82;;;3.80;;
37201;SDS011;37799;52.390;6.136;2022-12-18T05:14:37;9.50;;;2.75;;
37201;SDS011;37799;52.390;6.136;2022-12-18T05:17:02;18.13;;;2.67;;
37201;SDS011;37799;52.390;6.136;2022-12-18T05:19:28;14.57;;;4.53;;
37201;SDS011;37799;52.390;6.136;2022-12-18T05:21:53;9.13;;;3.35;;
37201;SDS011;37799;52.390;6.136;2022-12-18T05:24:18;13.68;;;3.65;;
37201;SDS011;37799;52.390;6.136;2022-12-18T05:26:44;16.75;;;3.78;;
37201;SDS011;37799;52.390;6.136;2022-12-18T05:29:09;17.05;;;4.68;;
37201;SDS011;37799;52.390;6.136;2022-12-18T05:31:37;10.90;;;3.95;;
37201;SDS011;37799;52.390;6.136;2022-12-18T05:34:02;15.23;;;3.92;;
37201;SDS011;37799;52.390;6.136;2022-12-18T05:36:28;6.63;;;2.47;;
37201;SDS011;37799;52.390;6.136;2022-12-18T05:38:53;17.60;;;3.13;;
37201;SDS011;37799;52.390;6.136;2022-12-18T05:41:18;8.77;;;2.88;;
37201;SDS011;37799;52.390;6.136;2022-12-18T05:43:44;9.82;;;2.80;;
37201;SDS011;37799;52.390;6.136;2022-12-18T05:46:13;13.63;;;3.70;;
37201;SDS011;37799;52.390;6.136;2022-12-18T05:48:41;10.35;;;2.47;;
37201;SDS011;37799;52.390;6.136;2022-12-18T05:51:07;8.48;;;2.47;;
37201;SDS011;37799;52.390;6.136;2022-12-18T05:53:35;16.35;;;3.50;;
37201;SDS011;37799;52.390;6.136;2022-12-18T05:56:05;20.65;;;3.80;;
37201;SDS011;37799;52.390;6.136;2022-12-18T05:58:31;9.55;;;3.05;;
37201;SDS011;37799;52.390;6.136;2022-12-18T06:00:57;7.85;;;2.63;;
37201;SDS011;37799;52.390;6.136;2022-12-18T06:03:30;11.85;;;4.07;;
37201;SDS011;37799;52.390;6.136;2022-12-18T06:05:55;12.43;;;3.55;;
37201;SDS011;37799;52.390;6.136;2022-12-18T06:08:20;10.98;;;3.42;;
37201;SDS011;37799;52.390;6.136;2022-12-18T06:10:49;10.90;;;2.85;;
37201;SDS011;37799;52.390;6.136;2022-12-18T06:13:16;16.13;;;3.72;;
37201;SDS011;37799;52.390;6.136;2022-12-18T06:15:41;9.80;;;3.22;;
37201;SDS011;37799;52.390;6.136;2022-12-18T06:18:07;17.05;;;3.35;;
37201;SDS011;37799;52.390;6.136;2022-12-18T06:20:32;10.60;;;3.35;;
37201;SDS011;37799;52.390;6.136;2022-12-18T06:22:58;7.38;;;2.40;;
37201;SDS011;37799;52.390;6.136;2022-12-18T06:25:24;11.13;;;2.30;;
37201;SDS011;37799;52.390;6.136;2022-12-18T06:27:49;7.90;;;3.15;;
37201;SDS011;37799;52.390;6.136;2022-12-18T06:30:14;9.35;;;1.83;;
37201;SDS011;37799;52.390;6.136;2022-12-18T06:32:40;22.38;;;3.05;;
37201;SDS011;37799;52.390;6.136;2022-12-18T06:35:06;12.23;;;2.60;;
37201;SDS011;37799;52.390;6.136;2022-12-18T06:37:31;8.70;;;3.80;;
37201;SDS011;37799;52.390;6.136;2022-12-18T06:39:56;8.45;;;2.88;;
37201;SDS011;37799;52.390;6.136;2022-12-18T06:42:22;9.07;;;2.47;;
37201;SDS011;37799;52.390;6.136;2022-12-18T06:44:48;5.82;;;2.22;;
37201;SDS011;37799;52.390;6.136;2022-12-18T06:47:13;25.40;;;3.35;;
37201;SDS011;37799;52.390;6.136;2022-12-18T06:49:39;8.82;;;2.92;;
37201;SDS011;37799;52.390;6.136;2022-12-18T06:52:04;9.50;;;3.30;;
37201;SDS011;37799;52.390;6.136;2022-12-18T06:54:29;12.13;;;2.03;;
37201;SDS011;37799;52.390;6.136;2022-12-18T06:56:54;8.25;;;2.03;;
37201;SDS011;37799;52.390;6.136;2022-12-18T06:59:21;16.05;;;3.38;;
37201;SDS011;37799;52.390;6.136;2022-12-18T07:01:46;3.55;;;1.55;;
37201;SDS011;37799;52.390;6.136;2022-12-18T07:04:12;4.22;;;1.70;;
37201;SDS011;37799;52.390;6.136;2022-12-18T07:06:37;4.82;;;1.77;;
37201;SDS011;37799;52.390;6.136;2022-12-18T07:09:02;9.77;;;3.17;;
37201;SDS011;37799;52.390;6.136;2022-12-18T07:11:28;14.90;;;3.97;;
37201;SDS011;37799;52.390;6.136;2022-12-18T07:13:53;8.20;;;2.75;;
37201;SDS011;37799;52.390;6.136;2022-12-18T07:16:19;14.68;;;3.67;;
37201;SDS011;37799;52.390;6.136;2022-12-18T07:18:45;12.65;;;2.85;;
37201;SDS011;37799;52.390;6.136;2022-12-18T07:21:12;13.68;;;3.17;;
37201;SDS011;37799;52.390;6.136;2022-12-18T07:23:39;6.75;;;2.58;;
37201;SDS011;37799;52.390;6.136;2022-12-18T07:26:06;9.73;;;2.83;;
37201;SDS011;37799;52.390;6.136;2022-12-18T07:28:34;8.90;;;2.72;;
37201;SDS011;37799;52.390;6.136;2022-12-18T07:31:04;9.60;;;3.22;;
37201;SDS011;37799;52.390;6.136;2022-12-18T07:33:31;10.55;;;3.15;;
37201;SDS011;37799;52.390;6.136;2022-12-18T07:36:01;14.05;;;2.60;;
37201;SDS011;37799;52.390;6.136;2022-12-18T07:38:34;11.27;;;3.05;;
37201;SDS011;37799;52.390;6.136;2022-12-18T07:41:00;9.85;;;2.53;;
37201;SDS011;37799;52.390;6.136;2022-12-18T07:43:27;12.75;;;3.45;;
37201;SDS011;37799;52.390;6.136;2022-12-18T07:45:52;12.02;;;3.25;;
37201;SDS011;37799;52.390;6.136;2022-12-18T07:48:17;11.52;;;3.42;;
37201;SDS011;37799;52.390;6.136;2022-12-18T07:50:43;10.38;;;2.78;;
37201;SDS011;37799;52.390;6.136;2022-12-18T07:53:08;10.18;;;2.28;;
37201;SDS011;37799;52.390;6.136;2022-12-18T07:55:33;15.45;;;2.65;;
37201;SDS011;37799;52.390;6.136;2022-12-18T07:58:02;10.15;;;4.03;;
37201;SDS011;37799;52.390;6.136;2022-12-18T08:00:29;9.73;;;2.97;;
37201;SDS011;37799;52.390;6.136;2022-12-18T08:02:55;6.38;;;1.95;;
37201;SDS011;37799;52.390;6.136;2022-12-18T08:05:20;7.45;;;2.33;;
37201;SDS011;37799;52.390;6.136;2022-12-18T08:07:46;7.45;;;2.17;;
37201;SDS011;37799;52.390;6.136;2022-12-18T08:10:11;5.40;;;1.67;;
37201;SDS011;37799;52.390;6.136;2022-12-18T08:12:37;8.15;;;1.30;;
37201;SDS011;37799;52.390;6.136;2022-12-18T08:15:02;14.30;;;3.38;;
37201;SDS011;37799;52.390;6.136;2022-12-18T08:17:28;13.75;;;3.30;;
37201;SDS011;37799;52.390;6.136;2022-12-18T08:19:53;4.75;;;0.85;;
37201;SDS011;37799;52.390;6.136;2022-12-18T08:22:18;7.95;;;2.80;;
37201;SDS011;37799;52.390;6.136;2022-12-18T08:24:44;6.25;;;2.40;;
37201;SDS011;37799;52.390;6.136;2022-12-18T08:27:09;12.02;;;2.50;;
37201;SDS011;37799;52.390;6.136;2022-12-18T08:29:35;8.82;;;2.83;;
37201;SDS011;37799;52.390;6.136;2022-12-18T08:32:00;10.32;;;3.45;;
37201;SDS011;37799;52.390;6.136;2022-12-18T08:34:25;11.90;;;2.65;;
37201;SDS011;37799;52.390;6.136;2022-12-18T08:36:51;12.18;;;4.65;;
37201;SDS011;37799;52.390;6.136;2022-12-18T08:39:16;8.57;;;2.72;;
37201;SDS011;37799;52.390;6.136;2022-12-18T08:41:41;8.02;;;2.78;;
37201;SDS011;37799;52.390;6.136;2022-12-18T08:44:07;5.80;;;1.98;;
37201;SDS011;37799;52.390;6.136;2022-12-18T08:46:51;8.20;;;2.67;;
37201;SDS011;37799;52.390;6.136;2022-12-18T08:49:17;10.23;;;2.55;;
37201;SDS011;37799;52.390;6.136;2022-12-18T08:51:43;10.73;;;2.85;;
37201;SDS011;37799;52.390;6.136;2022-12-18T08:54:09;9.85;;;2.05;;
37201;SDS011;37799;52.390;6.136;2022-12-18T08:56:36;4.60;;;1.45;;
37201;SDS011;37799;52.390;6.136;2022-12-18T08:59:02;11.95;;;2.60;;
37201;SDS011;37799;52.390;6.136;2022-12-18T09:01:27;8.30;;;2.90;;
37201;SDS011;37799;52.390;6.136;2022-12-18T09:03:53;7.30;;;2.10;;
37201;SDS011;37799;52.390;6.136;2022-12-18T09:06:19;11.68;;;3.40;;
37201;SDS011;37799;52.390;6.136;2022-12-18T09:08:46;10.80;;;2.35;;
37201;SDS011;37799;52.390;6.136;2022-12-18T09:11:18;9.23;;;2.80;;
37201;SDS011;37799;52.390;6.136;2022-12-18T09:13:46;18.63;;;2.33;;
37201;SDS011;37799;52.390;6.136;2022-12-18T09:16:11;9.80;;;2.60;;
37201;SDS011;37799;52.390;6.136;2022-12-18T09:18:37;10.18;;;2.45;;
37201;SDS011;37799;52.390;6.136;2022-12-18T09:21:35;7.90;;;2.40;;
37201;SDS011;37799;52.390;6.136;2022-12-18T09:23:56;6.57;;;1.80;;
37201;SDS011;37799;52.390;6.136;2022-12-18T09:26:22;3.45;;;1.15;;
37201;SDS011;37799;52.390;6.136;2022-12-18T09:28:48;9.48;;;2.40;;
37201;SDS011;37799;52.390;6.136;2022-12-18T09:31:13;5.07;;;1.67;;
37201;SDS011;37799;52.390;6.136;2022-12-18T09:33:39;7.80;;;2.42;;
37201;SDS011;37799;52.390;6.136;2022-12-18T09:36:05;10.10;;;3.13;;
37201;SDS011;37799;52.390;6.136;2022-12-18T09:38:32;7.50;;;2.35;;
37201;SDS011;37799;52.390;6.136;2022-12-18T09:41:05;8.85;;;2.55;;
37201;SDS011;37799;52.390;6.136;2022-12-18T09:43:44;6.40;;;2.00;;
37201;SDS011;37799;52.390;6.136;2022-12-18T09:46:16;8.70;;;2.13;;
37201;SDS011;37799;52.390;6.136;2022-12-18T09:48:45;7.55;;;1.95;;
37201;SDS011;37799;52.390;6.136;2022-12-18T09:51:15;7.15;;;2.15;;
37201;SDS011;37799;52.390;6.136;2022-12-18T09:54:06;9.80;;;2.85;;
37201;SDS011;37799;52.390;6.136;2022-12-18T09:56:38;7.57;;;1.95;;
37201;SDS011;37799;52.390;6.136;2022-12-18T09:59:08;5.38;;;1.55;;
37201;SDS011;37799;52.390;6.136;2022-12-18T10:01:45;7.50;;;1.92;;
37201;SDS011;37799;52.390;6.136;2022-12-18T10:04:10;6.93;;;1.95;;
37201;SDS011;37799;52.390;6.136;2022-12-18T10:07:13;5.70;;;1.40;;
37201;SDS011;37799;52.390;6.136;2022-12-18T10:12:22;4.60;;;1.48;;
37201;SDS011;37799;52.390;6.136;2022-12-18T10:17:39;2.92;;;0.73;;
37201;SDS011;37799;52.390;6.136;2022-12-18T10:20:24;4.47;;;1.00;;
37201;SDS011;37799;52.390;6.136;2022-12-18T10:26:00;3.53;;;0.85;;
37201;SDS011;37799;52.390;6.136;2022-12-18T10:28:31;5.00;;;1.60;;
37201;SDS011;37799;52.390;6.136;2022-12-18T10:30:58;5.95;;;1.45;;
37201;SDS011;37799;52.390;6.136;2022-12-18T10:33:27;5.78;;;1.23;;
37201;SDS011;37799;52.390;6.136;2022-12-18T10:35:55;5.50;;;1.42;;
37201;SDS011;37799;52.390;6.136;2022-12-18T10:38:21;6.72;;;1.98;;
37201;SDS011;37799;52.390;6.136;2022-12-18T10:43:19;8.00;;;1.88;;
37201;SDS011;37799;52.390;6.136;2022-12-18T10:45:57;6.43;;;1.30;;
37201;SDS011;37799;52.390;6.136;2022-12-18T10:48:25;5.43;;;1.15;;
37201;SDS011;37799;52.390;6.136;2022-12-18T10:50:51;6.25;;;1.88;;
37201;SDS011;37799;52.390;6.136;2022-12-18T10:53:30;5.18;;;1.30;;
37201;SDS011;37799;52.390;6.136;2022-12-18T10:55:58;6.13;;;2.00;;
37201;SDS011;37799;52.390;6.136;2022-12-18T11:01:04;7.32;;;1.50;;
37201;SDS011;37799;52.390;6.136;2022-12-18T11:03:33;6.90;;;1.50;;
37201;SDS011;37799;52.390;6.136;2022-12-18T11:06:05;4.80;;;1.20;;
37201;SDS011;37799;52.390;6.136;2022-12-18T11:08:32;3.92;;;0.90;;
37201;SDS011;37799;52.390;6.136;2022-12-18T11:10:58;4.65;;;1.33;;
37201;SDS011;37799;52.390;6.136;2022-12-18T11:13:24;6.07;;;2.15;;
37201;SDS011;37799;52.390;6.136;2022-12-18T11:15:51;9.25;;;2.00;;
37201;SDS011;37799;52.390;6.136;2022-12-18T11:18:25;6.72;;;1.50;;
37201;SDS011;37799;52.390;6.136;2022-12-18T11:20:54;6.82;;;1.48;;
37201;SDS011;37799;52.390;6.136;2022-12-18T11:23:43;5.60;;;1.67;;
37201;SDS011;37799;52.390;6.136;2022-12-18T11:26:19;6.63;;;1.50;;
37201;SDS011;37799;52.390;6.136;2022-12-18T11:28:47;8.65;;;1.75;;
37201;SDS011;37799;52.390;6.136;2022-12-18T11:33:46;7.45;;;1.85;;
37201;SDS011;37799;52.390;6.136;2022-12-18T11:36:33;6.53;;;1.15;;
37201;SDS011;37799;52.390;6.136;2022-12-18T11:39:07;6.38;;;1.63;;
37201;SDS011;37799;52.390;6.136;2022-12-18T11:41:39;5.32;;;1.52;;
37201;SDS011;37799;52.390;6.136;2022-12-18T11:44:46;6.10;;;1.30;;
37201;SDS011;37799;52.390;6.136;2022-12-18T11:47:18;1.98;;;0.50;;
37201;SDS011;37799;52.390;6.136;2022-12-18T11:49:50;5.18;;;1.30;;
37201;SDS011;37799;52.390;6.136;2022-12-18T11:52:21;3.97;;;0.95;;
37201;SDS011;37799;52.390;6.136;2022-12-18T11:54:55;4.68;;;1.40;;
37201;SDS011;37799;52.390;6.136;2022-12-18T12:00:17;6.15;;;1.20;;
37201;SDS011;37799;52.390;6.136;2022-12-18T12:11:06;5.05;;;1.30;;
37201;SDS011;37799;52.390;6.136;2022-12-18T12:13:38;7.45;;;1.48;;
37201;SDS011;37799;52.390;6.136;2022-12-18T12:16:28;8.27;;;1.55;;
37201;SDS011;37799;52.390;6.136;2022-12-18T12:19:10;5.32;;;1.55;;
37201;SDS011;37799;52.390;6.136;2022-12-18T12:21:52;7.25;;;1.80;;
37201;SDS011;37799;52.390;6.136;2022-12-18T12:27:41;5.85;;;1.42;;
37201;SDS011;37799;52.390;6.136;2022-12-18T12:30:23;6.88;;;1.40;;
37201;SDS011;37799;52.390;6.136;2022-12-18T12:35:51;4.65;;;1.08;;
37201;SDS011;37799;52.390;6.136;2022-12-18T12:38:35;4.63;;;0.98;;
37201;SDS011;37799;52.390;6.136;2022-12-18T12:41:08;3.90;;;0.88;;
37201;SDS011;37799;52.390;6.136;2022-12-18T12:43:57;9.00;;;1.38;;
37201;SDS011;37799;52.390;6.136;2022-12-18T12:46:25;4.40;;;1.35;;
37201;SDS011;37799;52.390;6.136;2022-12-18T12:48:55;4.95;;;1.40;;
37201;SDS011;37799;52.390;6.136;2022-12-18T12:51:25;3.90;;;1.20;;
37201;SDS011;37799;52.390;6.136;2022-12-18T12:53:53;3.90;;;0.77;;
37201;SDS011;37799;52.390;6.136;2022-12-18T12:56:21;6.43;;;1.08;;
37201;SDS011;37799;52.390;6.136;2022-12-18T13:01:40;6.97;;;1.02;;
37201;SDS011;37799;52.390;6.136;2022-12-18T13:20:38;3.65;;;1.23;;
37201;SDS011;37799;52.390;6.136;2022-12-18T13:30:58;5.43;;;0.90;;
37201;SDS011;37799;52.390;6.136;2022-12-18T13:36:00;5.85;;;1.40;;
37201;SDS011;37799;52.390;6.136;2022-12-18T13:41:03;3.67;;;0.88;;
37201;SDS011;37799;52.390;6.136;2022-12-18T13:43:49;4.78;;;0.95;;
37201;SDS011;37799;52.390;6.136;2022-12-18T13:46:21;4.03;;;0.90;;
37201;SDS011;37799;52.390;6.136;2022-12-18T13:48:53;5.78;;;1.60;;
37201;SDS011;37799;52.390;6.136;2022-12-18T13:51:26;6.82;;;1.92;;
37201;SDS011;37799;52.390;6.136;2022-12-18T13:53:58;4.00;;;1.33;;
37201;SDS011;37799;52.390;6.136;2022-12-18T13:56:26;3.83;;;1.00;;
37201;SDS011;37799;52.390;6.136;2022-12-18T13:59:32;5.65;;;0.90;;
37201;SDS011;37799;52.390;6.136;2022-12-18T14:01:47;4.03;;;0.93;;
37201;SDS011;37799;52.390;6.136;2022-12-18T14:04:20;6.53;;;1.38;;
37201;SDS011;37799;52.390;6.136;2022-12-18T14:06:49;2.90;;;0.60;;
37201;SDS011;37799;52.390;6.136;2022-12-18T14:09:18;5.97;;;1.00;;
37201;SDS011;37799;52.390;6.136;2022-12-18T14:11:49;4.40;;;1.42;;
37201;SDS011;37799;52.390;6.136;2022-12-18T14:14:16;6.38;;;1.10;;
37201;SDS011;37799;52.390;6.136;2022-12-18T14:16:43;6.72;;;2.00;;
37201;SDS011;37799;52.390;6.136;2022-12-18T14:19:13;4.18;;;1.27;;
37201;SDS011;37799;52.390;6.136;2022-12-18T14:21:45;6.07;;;1.58;;
37201;SDS011;37799;52.390;6.136;2022-12-18T14:24:16;7.60;;;0.95;;
37201;SDS011;37799;52.390;6.136;2022-12-18T14:26:43;6.32;;;1.73;;
37201;SDS011;37799;52.390;6.136;2022-12-18T14:29:21;4.55;;;1.10;;
37201;SDS011;37799;52.390;6.136;2022-12-18T14:32:10;3.72;;;1.35;;
37201;SDS011;37799;52.390;6.136;2022-12-18T14:34:42;3.65;;;0.70;;
37201;SDS011;37799;52.390;6.136;2022-12-18T14:37:13;8.40;;;1.33;;
37201;SDS011;37799;52.390;6.136;2022-12-18T14:39:40;3.50;;;0.73;;
37201;SDS011;37799;52.390;6.136;2022-12-18T14:42:05;3.78;;;0.57;;
37201;SDS011;37799;52.390;6.136;2022-12-18T14:44:34;3.40;;;0.88;;
37201;SDS011;37799;52.390;6.136;2022-12-18T14:47:00;5.60;;;1.27;;
37201;SDS011;37799;52.390;6.136;2022-12-18T14:49:32;3.08;;;0.82;;
37201;SDS011;37799;52.390;6.136;2022-12-18T14:51:59;3.55;;;0.95;;
37201;SDS011;37799;52.390;6.136;2022-12-18T14:54:29;4.85;;;0.90;;
37201;SDS011;37799;52.390;6.136;2022-12-18T14:57:03;5.32;;;1.25;;
37201;SDS011;37799;52.390;6.136;2022-12-18T14:59:30;4.43;;;0.98;;
37201;SDS011;37799;52.390;6.136;2022-12-18T15:07:06;5.22;;;0.82;;
37201;SDS011;37799;52.390;6.136;2022-12-18T15:09:36;8.98;;;1.05;;
37201;SDS011;37799;52.390;6.136;2022-12-18T15:12:02;2.55;;;1.10;;
37201;SDS011;37799;52.390;6.136;2022-12-18T15:17:03;4.30;;;1.05;;
37201;SDS011;37799;52.390;6.136;2022-12-18T15:19:33;6.53;;;1.13;;
37201;SDS011;37799;52.390;6.136;2022-12-18T15:22:02;4.40;;;1.10;;
37201;SDS011;37799;52.390;6.136;2022-12-18T15:24:30;4.25;;;0.80;;
37201;SDS011;37799;52.390;6.136;2022-12-18T15:26:57;4.72;;;1.00;;
37201;SDS011;37799;52.390;6.136;2022-12-18T15:29:23;3.25;;;0.80;;
37201;SDS011;37799;52.390;6.136;2022-12-18T15:32:03;4.30;;;1.25;;
37201;SDS011;37799;52.390;6.136;2022-12-18T15:34:30;4.60;;;0.90;;
37201;SDS011;37799;52.390;6.136;2022-12-18T15:36:56;3.38;;;0.82;;
37201;SDS011;37799;52.390;6.136;2022-12-18T15:39:22;5.00;;;1.23;;
37201;SDS011;37799;52.390;6.136;2022-12-18T15:41:47;5.57;;;0.95;;
37201;SDS011;37799;52.390;6.136;2022-12-18T15:44:51;4.30;;;0.98;;
37201;SDS011;37799;52.390;6.136;2022-12-18T15:47:16;4.00;;;0.90;;
37201;SDS011;37799;52.390;6.136;2022-12-18T15:49:41;5.03;;;1.27;;
37201;SDS011;37799;52.390;6.136;2022-12-18T15:52:08;3.75;;;0.60;;
37201;SDS011;37799;52.390;6.136;2022-12-18T15:54:38;6.95;;;1.50;;
37201;SDS011;37799;52.390;6.136;2022-12-18T15:57:21;4.95;;;1.05;;
37201;SDS011;37799;52.390;6.136;2022-12-18T15:59:50;8.63;;;1.02;;
37201;SDS011;37799;52.390;6.136;2022-12-18T16:02:18;7.20;;;0.80;;
37201;SDS011;37799;52.390;6.136;2022-12-18T16:04:44;4.63;;;0.88;;
37201;SDS011;37799;52.390;6.136;2022-12-18T16:07:10;6.10;;;0.75;;
37201;SDS011;37799;52.390;6.136;2022-12-18T16:09:36;6.88;;;1.00;;
37201;SDS011;37799;52.390;6.136;2022-12-18T16:12:02;6.25;;;1.33;;
37201;SDS011;37799;52.390;6.136;2022-12-18T16:14:28;5.15;;;1.00;;
37201;SDS011;37799;52.390;6.136;2022-12-18T16:16:56;2.72;;;0.85;;
37201;SDS011;37799;52.390;6.136;2022-12-18T16:21:52;4.63;;;1.42;;
37201;SDS011;37799;52.390;6.136;2022-12-18T16:24:23;5.38;;;1.45;;
37201;SDS011;37799;52.390;6.136;2022-12-18T16:26:50;5.80;;;1.77;;